<?xml version="1.0" encoding="UTF-8" standalone="no" ?>
<gpx xmlns="http://www.topografix.com/GPX/1/1" xmlns:xsi="http://www.w3.org/2001/XMLSchema-instance" xsi:schemaLocation="http://www.topografix.com/GPX/1/1 http://www.topografix.com/GPX/1/1/gpx.xsd" version="1.1" creator="VisuGPX - https://www.visugpx.com">
  <metadata>
    <name>La Mole,Ste Magdeleine</name>
    <desc><![CDATA[Départ de l\'église. Boucle par la route des Guiols puis chapelle Ste Magdeleine et légérement plus haut panorama 360°.Descente par piste de Lairé (à droite de la citerne) en venant de la chapelle.
Retour sur le village]]></desc>
  </metadata>
  <trk>
    <name><![CDATA[17 févr. 2015 13:18:36]]></name>
    <cmt><![CDATA[17 févr. 2015 13:18:36]]></cmt>
    <trkseg>
      <trkpt lat="43.20656" lon="6.4682">
        <ele>37</ele>
        <time>2015-02-17T12:19:46Z</time>
      </trkpt>
      <trkpt lat="43.20673" lon="6.46793">
        <ele>35</ele>
        <time>2015-02-17T12:19:58Z</time>
      </trkpt>
      <trkpt lat="43.20688" lon="6.46769">
        <ele>36</ele>
        <time>2015-02-17T12:20:03Z</time>
      </trkpt>
      <trkpt lat="43.20699" lon="6.46742">
        <ele>35</ele>
        <time>2015-02-17T12:20:18Z</time>
      </trkpt>
      <trkpt lat="43.20721" lon="6.46753">
        <ele>35</ele>
        <time>2015-02-17T12:20:36Z</time>
      </trkpt>
      <trkpt lat="43.20737" lon="6.46728">
        <ele>35</ele>
        <time>2015-02-17T12:20:59Z</time>
      </trkpt>
      <trkpt lat="43.2075" lon="6.46702">
        <ele>35</ele>
        <time>2015-02-17T12:21:25Z</time>
      </trkpt>
      <trkpt lat="43.20762" lon="6.46675">
        <ele>35</ele>
        <time>2015-02-17T12:21:44Z</time>
      </trkpt>
      <trkpt lat="43.20799" lon="6.46635">
        <ele>36</ele>
        <time>2015-02-17T12:22:20Z</time>
      </trkpt>
      <trkpt lat="43.2083" lon="6.46585">
        <ele>37</ele>
        <time>2015-02-17T12:22:54Z</time>
      </trkpt>
      <trkpt lat="43.20846" lon="6.46564">
        <ele>37</ele>
        <time>2015-02-17T12:23:05Z</time>
      </trkpt>
      <trkpt lat="43.20861" lon="6.46539">
        <ele>36</ele>
        <time>2015-02-17T12:23:21Z</time>
      </trkpt>
      <trkpt lat="43.20883" lon="6.46533">
        <ele>35</ele>
        <time>2015-02-17T12:23:39Z</time>
      </trkpt>
      <trkpt lat="43.20906" lon="6.46532">
        <ele>35</ele>
        <time>2015-02-17T12:23:55Z</time>
      </trkpt>
      <trkpt lat="43.20928" lon="6.46543">
        <ele>43</ele>
        <time>2015-02-17T12:24:56Z</time>
      </trkpt>
      <trkpt lat="43.20943" lon="6.46567">
        <ele>28</ele>
        <time>2015-02-17T12:25:13Z</time>
      </trkpt>
      <trkpt lat="43.2096" lon="6.46589">
        <ele>33</ele>
        <time>2015-02-17T12:25:27Z</time>
      </trkpt>
      <trkpt lat="43.20997" lon="6.46627">
        <ele>36</ele>
        <time>2015-02-17T12:25:59Z</time>
      </trkpt>
      <trkpt lat="43.21014" lon="6.46647">
        <ele>38</ele>
        <time>2015-02-17T12:26:15Z</time>
      </trkpt>
      <trkpt lat="43.21028" lon="6.46672">
        <ele>39</ele>
        <time>2015-02-17T12:26:31Z</time>
      </trkpt>
      <trkpt lat="43.21046" lon="6.4673">
        <ele>42</ele>
        <time>2015-02-17T12:26:59Z</time>
      </trkpt>
      <trkpt lat="43.21078" lon="6.46816">
        <ele>42</ele>
        <time>2015-02-17T12:27:40Z</time>
      </trkpt>
      <trkpt lat="43.21105" lon="6.46869">
        <ele>41</ele>
        <time>2015-02-17T12:28:11Z</time>
      </trkpt>
      <trkpt lat="43.21117" lon="6.46896">
        <ele>40</ele>
        <time>2015-02-17T12:28:25Z</time>
      </trkpt>
      <trkpt lat="43.21123" lon="6.46901">
        <ele>39</ele>
        <time>2015-02-17T12:28:29Z</time>
      </trkpt>
      <trkpt lat="43.21183" lon="6.46952">
        <ele>38</ele>
        <time>2015-02-17T12:29:14Z</time>
      </trkpt>
      <trkpt lat="43.21219" lon="6.46994">
        <ele>37</ele>
        <time>2015-02-17T12:29:45Z</time>
      </trkpt>
      <trkpt lat="43.21278" lon="6.47056">
        <ele>36</ele>
        <time>2015-02-17T12:30:27Z</time>
      </trkpt>
      <trkpt lat="43.21316" lon="6.47095">
        <ele>36</ele>
        <time>2015-02-17T12:30:59Z</time>
      </trkpt>
      <trkpt lat="43.21371" lon="6.47154">
        <ele>36</ele>
        <time>2015-02-17T12:31:43Z</time>
      </trkpt>
      <trkpt lat="43.21388" lon="6.47175">
        <ele>37</ele>
        <time>2015-02-17T12:32:03Z</time>
      </trkpt>
      <trkpt lat="43.2141" lon="6.47186">
        <ele>37</ele>
        <time>2015-02-17T12:32:33Z</time>
      </trkpt>
      <trkpt lat="43.21431" lon="6.47199">
        <ele>38</ele>
        <time>2015-02-17T12:33:16Z</time>
      </trkpt>
      <trkpt lat="43.21499" lon="6.47208">
        <ele>40</ele>
        <time>2015-02-17T12:34:01Z</time>
      </trkpt>
      <trkpt lat="43.21568" lon="6.47218">
        <ele>43</ele>
        <time>2015-02-17T12:34:44Z</time>
      </trkpt>
      <trkpt lat="43.21591" lon="6.47224">
        <ele>43</ele>
        <time>2015-02-17T12:35:12Z</time>
      </trkpt>
      <trkpt lat="43.21614" lon="6.47218">
        <ele>44</ele>
        <time>2015-02-17T12:35:30Z</time>
      </trkpt>
      <trkpt lat="43.21632" lon="6.47196">
        <ele>44</ele>
        <time>2015-02-17T12:35:45Z</time>
      </trkpt>
      <trkpt lat="43.21645" lon="6.4717">
        <ele>45</ele>
        <time>2015-02-17T12:36:02Z</time>
      </trkpt>
      <trkpt lat="43.21653" lon="6.47141">
        <ele>45</ele>
        <time>2015-02-17T12:36:16Z</time>
      </trkpt>
      <trkpt lat="43.21669" lon="6.47118">
        <ele>46</ele>
        <time>2015-02-17T12:36:34Z</time>
      </trkpt>
      <trkpt lat="43.2169" lon="6.47105">
        <ele>46</ele>
        <time>2015-02-17T12:36:56Z</time>
      </trkpt>
      <trkpt lat="43.21713" lon="6.47098">
        <ele>46</ele>
        <time>2015-02-17T12:37:18Z</time>
      </trkpt>
      <trkpt lat="43.21736" lon="6.47101">
        <ele>47</ele>
        <time>2015-02-17T12:37:34Z</time>
      </trkpt>
      <trkpt lat="43.2178" lon="6.47121">
        <ele>48</ele>
        <time>2015-02-17T12:38:15Z</time>
      </trkpt>
      <trkpt lat="43.21824" lon="6.47145">
        <ele>48</ele>
        <time>2015-02-17T12:38:48Z</time>
      </trkpt>
      <trkpt lat="43.21843" lon="6.47126">
        <ele>48</ele>
        <time>2015-02-17T12:39:10Z</time>
      </trkpt>
      <trkpt lat="43.21861" lon="6.47106">
        <ele>48</ele>
        <time>2015-02-17T12:39:40Z</time>
      </trkpt>
      <trkpt lat="43.21878" lon="6.47085">
        <ele>49</ele>
        <time>2015-02-17T12:39:55Z</time>
      </trkpt>
      <trkpt lat="43.21896" lon="6.47028">
        <ele>49</ele>
        <time>2015-02-17T12:40:26Z</time>
      </trkpt>
      <trkpt lat="43.21918" lon="6.46973">
        <ele>50</ele>
        <time>2015-02-17T12:40:56Z</time>
      </trkpt>
      <trkpt lat="43.21937" lon="6.46915">
        <ele>51</ele>
        <time>2015-02-17T12:41:29Z</time>
      </trkpt>
      <trkpt lat="43.21968" lon="6.46828">
        <ele>52</ele>
        <time>2015-02-17T12:42:14Z</time>
      </trkpt>
      <trkpt lat="43.21989" lon="6.46771">
        <ele>53</ele>
        <time>2015-02-17T12:42:49Z</time>
      </trkpt>
      <trkpt lat="43.22008" lon="6.46714">
        <ele>53</ele>
        <time>2015-02-17T12:43:25Z</time>
      </trkpt>
      <trkpt lat="43.2202" lon="6.46653">
        <ele>53</ele>
        <time>2015-02-17T12:43:58Z</time>
      </trkpt>
      <trkpt lat="43.2204" lon="6.46634">
        <ele>54</ele>
        <time>2015-02-17T12:44:13Z</time>
      </trkpt>
      <trkpt lat="43.22081" lon="6.46601">
        <ele>53</ele>
        <time>2015-02-17T12:44:43Z</time>
      </trkpt>
      <trkpt lat="43.22129" lon="6.46531">
        <ele>51</ele>
        <time>2015-02-17T12:45:28Z</time>
      </trkpt>
      <trkpt lat="43.2214" lon="6.46504">
        <ele>51</ele>
        <time>2015-02-17T12:45:44Z</time>
      </trkpt>
      <trkpt lat="43.22158" lon="6.46484">
        <ele>50</ele>
        <time>2015-02-17T12:46:42Z</time>
      </trkpt>
      <trkpt lat="43.22173" lon="6.46461">
        <ele>51</ele>
        <time>2015-02-17T12:46:58Z</time>
      </trkpt>
      <trkpt lat="43.222" lon="6.4641">
        <ele>51</ele>
        <time>2015-02-17T12:47:28Z</time>
      </trkpt>
      <trkpt lat="43.22229" lon="6.46361">
        <ele>51</ele>
        <time>2015-02-17T12:48:04Z</time>
      </trkpt>
      <trkpt lat="43.22252" lon="6.46351">
        <ele>51</ele>
        <time>2015-02-17T12:48:20Z</time>
      </trkpt>
      <trkpt lat="43.22275" lon="6.46355">
        <ele>51</ele>
        <time>2015-02-17T12:48:36Z</time>
      </trkpt>
      <trkpt lat="43.22296" lon="6.46366">
        <ele>51</ele>
        <time>2015-02-17T12:48:53Z</time>
      </trkpt>
      <trkpt lat="43.22278" lon="6.46383">
        <ele>51</ele>
        <time>2015-02-17T12:49:40Z</time>
      </trkpt>
      <trkpt lat="43.22257" lon="6.46399">
        <ele>50</ele>
        <time>2015-02-17T12:49:53Z</time>
      </trkpt>
      <trkpt lat="43.22264" lon="6.4646">
        <ele>51</ele>
        <time>2015-02-17T12:50:31Z</time>
      </trkpt>
      <trkpt lat="43.22244" lon="6.46518">
        <ele>56</ele>
        <time>2015-02-17T12:51:13Z</time>
      </trkpt>
      <trkpt lat="43.22237" lon="6.46548">
        <ele>59</ele>
        <time>2015-02-17T12:51:31Z</time>
      </trkpt>
      <trkpt lat="43.22241" lon="6.46579">
        <ele>62</ele>
        <time>2015-02-17T12:51:48Z</time>
      </trkpt>
      <trkpt lat="43.22252" lon="6.46606">
        <ele>65</ele>
        <time>2015-02-17T12:52:06Z</time>
      </trkpt>
      <trkpt lat="43.2227" lon="6.46627">
        <ele>69</ele>
        <time>2015-02-17T12:52:23Z</time>
      </trkpt>
      <trkpt lat="43.22291" lon="6.46639">
        <ele>72</ele>
        <time>2015-02-17T12:52:41Z</time>
      </trkpt>
      <trkpt lat="43.22332" lon="6.46668">
        <ele>79</ele>
        <time>2015-02-17T12:53:18Z</time>
      </trkpt>
      <trkpt lat="43.22338" lon="6.46699">
        <ele>83</ele>
        <time>2015-02-17T12:53:43Z</time>
      </trkpt>
      <trkpt lat="43.22343" lon="6.46762">
        <ele>89</ele>
        <time>2015-02-17T12:54:20Z</time>
      </trkpt>
      <trkpt lat="43.22342" lon="6.46793">
        <ele>92</ele>
        <time>2015-02-17T12:54:43Z</time>
      </trkpt>
      <trkpt lat="43.22333" lon="6.46824">
        <ele>96</ele>
        <time>2015-02-17T12:55:01Z</time>
      </trkpt>
      <trkpt lat="43.22333" lon="6.46855">
        <ele>100</ele>
        <time>2015-02-17T12:55:21Z</time>
      </trkpt>
      <trkpt lat="43.22344" lon="6.46916">
        <ele>106</ele>
        <time>2015-02-17T12:55:57Z</time>
      </trkpt>
      <trkpt lat="43.22353" lon="6.46978">
        <ele>112</ele>
        <time>2015-02-17T12:56:39Z</time>
      </trkpt>
      <trkpt lat="43.22365" lon="6.47007">
        <ele>115</ele>
        <time>2015-02-17T12:56:58Z</time>
      </trkpt>
      <trkpt lat="43.22396" lon="6.47058">
        <ele>120</ele>
        <time>2015-02-17T12:57:48Z</time>
      </trkpt>
      <trkpt lat="43.224" lon="6.47089">
        <ele>123</ele>
        <time>2015-02-17T12:58:10Z</time>
      </trkpt>
      <trkpt lat="43.22397" lon="6.47153">
        <ele>131</ele>
        <time>2015-02-17T12:58:52Z</time>
      </trkpt>
      <trkpt lat="43.22391" lon="6.47218">
        <ele>139</ele>
        <time>2015-02-17T12:59:34Z</time>
      </trkpt>
      <trkpt lat="43.22389" lon="6.47282">
        <ele>148</ele>
        <time>2015-02-17T13:00:15Z</time>
      </trkpt>
      <trkpt lat="43.22403" lon="6.47307">
        <ele>152</ele>
        <time>2015-02-17T13:00:35Z</time>
      </trkpt>
      <trkpt lat="43.22438" lon="6.47348">
        <ele>159</ele>
        <time>2015-02-17T13:01:15Z</time>
      </trkpt>
      <trkpt lat="43.22468" lon="6.47395">
        <ele>165</ele>
        <time>2015-02-17T13:01:48Z</time>
      </trkpt>
      <trkpt lat="43.22463" lon="6.47426">
        <ele>168</ele>
        <time>2015-02-17T13:02:07Z</time>
      </trkpt>
      <trkpt lat="43.22466" lon="6.47456">
        <ele>172</ele>
        <time>2015-02-17T13:02:25Z</time>
      </trkpt>
      <trkpt lat="43.2248" lon="6.47517">
        <ele>178</ele>
        <time>2015-02-17T13:02:58Z</time>
      </trkpt>
      <trkpt lat="43.22496" lon="6.47577">
        <ele>180</ele>
        <time>2015-02-17T13:03:32Z</time>
      </trkpt>
      <trkpt lat="43.22522" lon="6.4763">
        <ele>185</ele>
        <time>2015-02-17T13:04:09Z</time>
      </trkpt>
      <trkpt lat="43.22544" lon="6.47641">
        <ele>186</ele>
        <time>2015-02-17T13:04:30Z</time>
      </trkpt>
      <trkpt lat="43.22567" lon="6.47638">
        <ele>188</ele>
        <time>2015-02-17T13:04:49Z</time>
      </trkpt>
      <trkpt lat="43.22612" lon="6.4762">
        <ele>193</ele>
        <time>2015-02-17T13:05:24Z</time>
      </trkpt>
      <trkpt lat="43.22634" lon="6.47609">
        <ele>195</ele>
        <time>2015-02-17T13:05:52Z</time>
      </trkpt>
      <trkpt lat="43.22648" lon="6.47548">
        <ele>199</ele>
        <time>2015-02-17T13:06:28Z</time>
      </trkpt>
      <trkpt lat="43.22654" lon="6.47518">
        <ele>201</ele>
        <time>2015-02-17T13:06:43Z</time>
      </trkpt>
      <trkpt lat="43.22648" lon="6.47488">
        <ele>203</ele>
        <time>2015-02-17T13:06:59Z</time>
      </trkpt>
      <trkpt lat="43.22623" lon="6.47435">
        <ele>207</ele>
        <time>2015-02-17T13:07:43Z</time>
      </trkpt>
      <trkpt lat="43.22597" lon="6.47385">
        <ele>212</ele>
        <time>2015-02-17T13:08:32Z</time>
      </trkpt>
      <trkpt lat="43.22592" lon="6.47353">
        <ele>214</ele>
        <time>2015-02-17T13:08:58Z</time>
      </trkpt>
      <trkpt lat="43.226" lon="6.47323">
        <ele>216</ele>
        <time>2015-02-17T13:09:30Z</time>
      </trkpt>
      <trkpt lat="43.22614" lon="6.47297">
        <ele>218</ele>
        <time>2015-02-17T13:10:01Z</time>
      </trkpt>
      <trkpt lat="43.22607" lon="6.47267">
        <ele>221</ele>
        <time>2015-02-17T13:10:29Z</time>
      </trkpt>
      <trkpt lat="43.226" lon="6.47238">
        <ele>224</ele>
        <time>2015-02-17T13:10:56Z</time>
      </trkpt>
      <trkpt lat="43.22589" lon="6.47208">
        <ele>252</ele>
        <time>2015-02-17T13:12:38Z</time>
      </trkpt>
      <trkpt lat="43.22589" lon="6.47204">
        <ele>273</ele>
        <time>2015-02-17T13:13:20Z</time>
      </trkpt>
      <trkpt lat="43.22597" lon="6.47234">
        <ele>250</ele>
        <time>2015-02-17T13:17:34Z</time>
      </trkpt>
      <trkpt lat="43.22596" lon="6.47267">
        <ele>249</ele>
        <time>2015-02-17T13:18:16Z</time>
      </trkpt>
      <trkpt lat="43.22618" lon="6.47288">
        <ele>246</ele>
        <time>2015-02-17T13:19:49Z</time>
      </trkpt>
      <trkpt lat="43.22603" lon="6.4731">
        <ele>243</ele>
        <time>2015-02-17T13:20:17Z</time>
      </trkpt>
      <trkpt lat="43.22581" lon="6.47327">
        <ele>242</ele>
        <time>2015-02-17T13:20:45Z</time>
      </trkpt>
      <trkpt lat="43.22583" lon="6.4736">
        <ele>241</ele>
        <time>2015-02-17T13:21:01Z</time>
      </trkpt>
      <trkpt lat="43.22595" lon="6.4739">
        <ele>241</ele>
        <time>2015-02-17T13:21:14Z</time>
      </trkpt>
      <trkpt lat="43.22606" lon="6.47417">
        <ele>240</ele>
        <time>2015-02-17T13:21:27Z</time>
      </trkpt>
      <trkpt lat="43.22621" lon="6.47445">
        <ele>239</ele>
        <time>2015-02-17T13:21:58Z</time>
      </trkpt>
      <trkpt lat="43.22637" lon="6.47469">
        <ele>235</ele>
        <time>2015-02-17T13:22:26Z</time>
      </trkpt>
      <trkpt lat="43.22649" lon="6.47495">
        <ele>222</ele>
        <time>2015-02-17T13:23:40Z</time>
      </trkpt>
      <trkpt lat="43.22651" lon="6.47526">
        <ele>217</ele>
        <time>2015-02-17T13:23:59Z</time>
      </trkpt>
      <trkpt lat="43.22645" lon="6.47558">
        <ele>218</ele>
        <time>2015-02-17T13:24:21Z</time>
      </trkpt>
      <trkpt lat="43.22636" lon="6.47586">
        <ele>217</ele>
        <time>2015-02-17T13:24:35Z</time>
      </trkpt>
      <trkpt lat="43.22624" lon="6.47613">
        <ele>218</ele>
        <time>2015-02-17T13:24:52Z</time>
      </trkpt>
      <trkpt lat="43.22599" lon="6.47613">
        <ele>217</ele>
        <time>2015-02-17T13:25:15Z</time>
      </trkpt>
      <trkpt lat="43.22577" lon="6.4762">
        <ele>213</ele>
        <time>2015-02-17T13:25:32Z</time>
      </trkpt>
      <trkpt lat="43.22511" lon="6.47655">
        <ele>211</ele>
        <time>2015-02-17T13:26:16Z</time>
      </trkpt>
      <trkpt lat="43.22467" lon="6.47684">
        <ele>211</ele>
        <time>2015-02-17T13:26:47Z</time>
      </trkpt>
      <trkpt lat="43.22455" lon="6.47712">
        <ele>210</ele>
        <time>2015-02-17T13:27:03Z</time>
      </trkpt>
      <trkpt lat="43.22454" lon="6.47744">
        <ele>210</ele>
        <time>2015-02-17T13:27:18Z</time>
      </trkpt>
      <trkpt lat="43.22429" lon="6.47758">
        <ele>209</ele>
        <time>2015-02-17T13:27:43Z</time>
      </trkpt>
      <trkpt lat="43.22382" lon="6.47762">
        <ele>207</ele>
        <time>2015-02-17T13:28:13Z</time>
      </trkpt>
      <trkpt lat="43.22336" lon="6.47755">
        <ele>205</ele>
        <time>2015-02-17T13:28:46Z</time>
      </trkpt>
      <trkpt lat="43.22263" lon="6.47761">
        <ele>200</ele>
        <time>2015-02-17T13:29:40Z</time>
      </trkpt>
      <trkpt lat="43.22196" lon="6.4778">
        <ele>197</ele>
        <time>2015-02-17T13:30:33Z</time>
      </trkpt>
      <trkpt lat="43.22146" lon="6.47794">
        <ele>193</ele>
        <time>2015-02-17T13:31:14Z</time>
      </trkpt>
      <trkpt lat="43.22107" lon="6.47828">
        <ele>189</ele>
        <time>2015-02-17T13:31:44Z</time>
      </trkpt>
      <trkpt lat="43.22066" lon="6.47862">
        <ele>186</ele>
        <time>2015-02-17T13:32:14Z</time>
      </trkpt>
      <trkpt lat="43.22024" lon="6.47892">
        <ele>182</ele>
        <time>2015-02-17T13:32:47Z</time>
      </trkpt>
      <trkpt lat="43.22008" lon="6.47916">
        <ele>180</ele>
        <time>2015-02-17T13:33:03Z</time>
      </trkpt>
      <trkpt lat="43.21985" lon="6.4792">
        <ele>179</ele>
        <time>2015-02-17T13:33:25Z</time>
      </trkpt>
      <trkpt lat="43.21969" lon="6.47897">
        <ele>178</ele>
        <time>2015-02-17T13:33:44Z</time>
      </trkpt>
      <trkpt lat="43.21932" lon="6.4786">
        <ele>175</ele>
        <time>2015-02-17T13:34:11Z</time>
      </trkpt>
      <trkpt lat="43.21871" lon="6.47816">
        <ele>167</ele>
        <time>2015-02-17T13:34:56Z</time>
      </trkpt>
      <trkpt lat="43.21842" lon="6.47766">
        <ele>162</ele>
        <time>2015-02-17T13:35:28Z</time>
      </trkpt>
      <trkpt lat="43.21825" lon="6.47743">
        <ele>160</ele>
        <time>2015-02-17T13:35:45Z</time>
      </trkpt>
      <trkpt lat="43.21783" lon="6.47719">
        <ele>154</ele>
        <time>2015-02-17T13:36:12Z</time>
      </trkpt>
      <trkpt lat="43.21761" lon="6.47714">
        <ele>153</ele>
        <time>2015-02-17T13:36:28Z</time>
      </trkpt>
      <trkpt lat="43.21739" lon="6.4772">
        <ele>128</ele>
        <time>2015-02-17T13:37:40Z</time>
      </trkpt>
      <trkpt lat="43.21721" lon="6.47742">
        <ele>131</ele>
        <time>2015-02-17T13:37:57Z</time>
      </trkpt>
      <trkpt lat="43.21699" lon="6.47734">
        <ele>130</ele>
        <time>2015-02-17T13:38:14Z</time>
      </trkpt>
      <trkpt lat="43.21659" lon="6.47697">
        <ele>127</ele>
        <time>2015-02-17T13:38:47Z</time>
      </trkpt>
      <trkpt lat="43.21622" lon="6.47656">
        <ele>124</ele>
        <time>2015-02-17T13:39:17Z</time>
      </trkpt>
      <trkpt lat="43.21604" lon="6.47635">
        <ele>124</ele>
        <time>2015-02-17T13:39:36Z</time>
      </trkpt>
      <trkpt lat="43.21583" lon="6.47624">
        <ele>124</ele>
        <time>2015-02-17T13:39:54Z</time>
      </trkpt>
      <trkpt lat="43.21536" lon="6.47625">
        <ele>122</ele>
        <time>2015-02-17T13:40:24Z</time>
      </trkpt>
      <trkpt lat="43.21465" lon="6.47609">
        <ele>118</ele>
        <time>2015-02-17T13:41:10Z</time>
      </trkpt>
      <trkpt lat="43.21427" lon="6.47608">
        <ele>116</ele>
        <time>2015-02-17T13:41:44Z</time>
      </trkpt>
      <trkpt lat="43.21411" lon="6.4763">
        <ele>114</ele>
        <time>2015-02-17T13:42:08Z</time>
      </trkpt>
      <trkpt lat="43.21417" lon="6.47661">
        <ele>112</ele>
        <time>2015-02-17T13:42:24Z</time>
      </trkpt>
      <trkpt lat="43.21434" lon="6.47722">
        <ele>110</ele>
        <time>2015-02-17T13:42:57Z</time>
      </trkpt>
      <trkpt lat="43.21439" lon="6.47753">
        <ele>109</ele>
        <time>2015-02-17T13:43:16Z</time>
      </trkpt>
      <trkpt lat="43.21437" lon="6.47785">
        <ele>109</ele>
        <time>2015-02-17T13:43:34Z</time>
      </trkpt>
      <trkpt lat="43.21444" lon="6.47817">
        <ele>109</ele>
        <time>2015-02-17T13:43:47Z</time>
      </trkpt>
      <trkpt lat="43.21442" lon="6.47848">
        <ele>108</ele>
        <time>2015-02-17T13:44:06Z</time>
      </trkpt>
      <trkpt lat="43.21426" lon="6.47823">
        <ele>106</ele>
        <time>2015-02-17T13:44:30Z</time>
      </trkpt>
      <trkpt lat="43.21367" lon="6.47768">
        <ele>104</ele>
        <time>2015-02-17T13:45:15Z</time>
      </trkpt>
      <trkpt lat="43.21306" lon="6.47722">
        <ele>99</ele>
        <time>2015-02-17T13:45:52Z</time>
      </trkpt>
      <trkpt lat="43.21265" lon="6.47689">
        <ele>99</ele>
        <time>2015-02-17T13:46:25Z</time>
      </trkpt>
      <trkpt lat="43.21232" lon="6.47643">
        <ele>97</ele>
        <time>2015-02-17T13:46:58Z</time>
      </trkpt>
      <trkpt lat="43.21208" lon="6.47555">
        <ele>96</ele>
        <time>2015-02-17T13:47:40Z</time>
      </trkpt>
      <trkpt lat="43.21185" lon="6.4746">
        <ele>94</ele>
        <time>2015-02-17T13:48:23Z</time>
      </trkpt>
      <trkpt lat="43.21154" lon="6.47409">
        <ele>94</ele>
        <time>2015-02-17T13:48:53Z</time>
      </trkpt>
      <trkpt lat="43.21139" lon="6.47386">
        <ele>94</ele>
        <time>2015-02-17T13:49:08Z</time>
      </trkpt>
      <trkpt lat="43.21109" lon="6.47298">
        <ele>93</ele>
        <time>2015-02-17T13:49:50Z</time>
      </trkpt>
      <trkpt lat="43.21083" lon="6.47246">
        <ele>91</ele>
        <time>2015-02-17T13:50:20Z</time>
      </trkpt>
      <trkpt lat="43.21052" lon="6.472">
        <ele>89</ele>
        <time>2015-02-17T13:50:47Z</time>
      </trkpt>
      <trkpt lat="43.2104" lon="6.47173">
        <ele>86</ele>
        <time>2015-02-17T13:51:01Z</time>
      </trkpt>
      <trkpt lat="43.21051" lon="6.47141">
        <ele>85</ele>
        <time>2015-02-17T13:51:23Z</time>
      </trkpt>
      <trkpt lat="43.21045" lon="6.47112">
        <ele>84</ele>
        <time>2015-02-17T13:51:34Z</time>
      </trkpt>
      <trkpt lat="43.21017" lon="6.47023">
        <ele>79</ele>
        <time>2015-02-17T13:52:19Z</time>
      </trkpt>
      <trkpt lat="43.21029" lon="6.46995">
        <ele>77</ele>
        <time>2015-02-17T13:52:40Z</time>
      </trkpt>
      <trkpt lat="43.21029" lon="6.46962">
        <ele>75</ele>
        <time>2015-02-17T13:52:54Z</time>
      </trkpt>
      <trkpt lat="43.21026" lon="6.46926">
        <ele>74</ele>
        <time>2015-02-17T13:53:16Z</time>
      </trkpt>
      <trkpt lat="43.21018" lon="6.46864">
        <ele>70</ele>
        <time>2015-02-17T13:53:49Z</time>
      </trkpt>
      <trkpt lat="43.21009" lon="6.46801">
        <ele>67</ele>
        <time>2015-02-17T13:54:12Z</time>
      </trkpt>
      <trkpt lat="43.20998" lon="6.46771">
        <ele>67</ele>
        <time>2015-02-17T13:54:28Z</time>
      </trkpt>
      <trkpt lat="43.20981" lon="6.4675">
        <ele>65</ele>
        <time>2015-02-17T13:54:43Z</time>
      </trkpt>
      <trkpt lat="43.20957" lon="6.46751">
        <ele>64</ele>
        <time>2015-02-17T13:54:58Z</time>
      </trkpt>
      <trkpt lat="43.20937" lon="6.46766">
        <ele>64</ele>
        <time>2015-02-17T13:55:14Z</time>
      </trkpt>
      <trkpt lat="43.20923" lon="6.46792">
        <ele>62</ele>
        <time>2015-02-17T13:55:33Z</time>
      </trkpt>
      <trkpt lat="43.20899" lon="6.46805">
        <ele>62</ele>
        <time>2015-02-17T13:55:57Z</time>
      </trkpt>
      <trkpt lat="43.20877" lon="6.4679">
        <ele>61</ele>
        <time>2015-02-17T13:56:13Z</time>
      </trkpt>
      <trkpt lat="43.20853" lon="6.46775">
        <ele>60</ele>
        <time>2015-02-17T13:56:33Z</time>
      </trkpt>
      <trkpt lat="43.20826" lon="6.46733">
        <ele>57</ele>
        <time>2015-02-17T13:56:56Z</time>
      </trkpt>
      <trkpt lat="43.20814" lon="6.46707">
        <ele>54</ele>
        <time>2015-02-17T13:57:14Z</time>
      </trkpt>
      <trkpt lat="43.20794" lon="6.46723">
        <ele>53</ele>
        <time>2015-02-17T13:57:45Z</time>
      </trkpt>
      <trkpt lat="43.20785" lon="6.46784">
        <ele>49</ele>
        <time>2015-02-17T13:58:19Z</time>
      </trkpt>
      <trkpt lat="43.20761" lon="6.46783">
        <ele>48</ele>
        <time>2015-02-17T13:58:33Z</time>
      </trkpt>
    </trkseg>
  </trk>
</gpx>